sensor_id;sensor_type;location;lat;lon;timestamp;P1;durP1;ratioP1;P2;durP2;ratioP2
32625;SDS011;19038;50.922;11.880;2022-10-26T00:02:25;4.20;;;3.90;;
32625;SDS011;19038;50.922;11.880;2022-10-26T00:07:25;3.43;;;3.13;;
32625;SDS011;19038;50.922;11.880;2022-10-26T00:12:25;4.23;;;3.77;;
32625;SDS011;19038;50.922;11.880;2022-10-26T00:17:25;4.07;;;3.67;;
32625;SDS011;19038;50.922;11.880;2022-10-26T00:22:25;4.70;;;4.20;;
32625;SDS011;19038;50.922;11.880;2022-10-26T00:27:25;8.80;;;4.40;;
32625;SDS011;19038;50.922;11.880;2022-10-26T00:32:25;5.13;;;4.60;;
32625;SDS011;19038;50.922;11.880;2022-10-26T00:37:25;4.77;;;4.20;;
32625;SDS011;19038;50.922;11.880;2022-10-26T00:42:25;5.43;;;4.83;;
32625;SDS011;19038;50.922;11.880;2022-10-26T00:47:30;4.70;;;4.20;;
32625;SDS011;19038;50.922;11.880;2022-10-26T00:52:25;6.20;;;4.90;;
32625;SDS011;19038;50.922;11.880;2022-10-26T00:57:25;4.53;;;4.13;;
32625;SDS011;19038;50.922;11.880;2022-10-26T01:02:25;4.67;;;4.27;;
32625;SDS011;19038;50.922;11.880;2022-10-26T01:07:25;4.47;;;4.07;;
32625;SDS011;19038;50.922;11.880;2022-10-26T01:12:25;4.80;;;4.30;;
32625;SDS011;19038;50.922;11.880;2022-10-26T01:17:27;4.80;;;4.30;;
32625;SDS011;19038;50.922;11.880;2022-10-26T01:22:28;4.37;;;4.00;;
32625;SDS011;19038;50.922;11.880;2022-10-26T01:32:28;4.43;;;4.03;;
32625;SDS011;19038;50.922;11.880;2022-10-26T01:37:26;4.33;;;3.73;;
32625;SDS011;19038;50.922;11.880;2022-10-26T01:42:25;4.30;;;3.40;;
32625;SDS011;19038;50.922;11.880;2022-10-26T01:47:25;5.13;;;4.63;;
32625;SDS011;19038;50.922;11.880;2022-10-26T01:52:25;3.67;;;3.30;;
32625;SDS011;19038;50.922;11.880;2022-10-26T01:57:25;4.30;;;3.90;;
32625;SDS011;19038;50.922;11.880;2022-10-26T02:02:29;4.20;;;3.63;;
32625;SDS011;19038;50.922;11.880;2022-10-26T02:12:30;3.37;;;3.10;;
32625;SDS011;19038;50.922;11.880;2022-10-26T02:17:30;4.20;;;3.80;;
32625;SDS011;19038;50.922;11.880;2022-10-26T02:22:28;4.30;;;3.67;;
32625;SDS011;19038;50.922;11.880;2022-10-26T02:27:25;4.07;;;3.70;;
32625;SDS011;19038;50.922;11.880;2022-10-26T02:32:26;4.10;;;3.73;;
32625;SDS011;19038;50.922;11.880;2022-10-26T02:37:25;5.90;;;3.20;;
32625;SDS011;19038;50.922;11.880;2022-10-26T02:42:25;6.37;;;5.40;;
32625;SDS011;19038;50.922;11.880;2022-10-26T02:47:25;17.40;;;13.47;;
32625;SDS011;19038;50.922;11.880;2022-10-26T02:57:27;19.10;;;14.23;;
32625;SDS011;19038;50.922;11.880;2022-10-26T03:02:25;15.30;;;9.77;;
32625;SDS011;19038;50.922;11.880;2022-10-26T03:07:25;13.57;;;9.67;;
32625;SDS011;19038;50.922;11.880;2022-10-26T03:12:25;47.77;;;29.03;;
32625;SDS011;19038;50.922;11.880;2022-10-26T03:17:25;63.70;;;36.47;;
32625;SDS011;19038;50.922;11.880;2022-10-26T03:22:25;20.90;;;13.20;;
32625;SDS011;19038;50.922;11.880;2022-10-26T03:27:25;9.00;;;6.97;;
32625;SDS011;19038;50.922;11.880;2022-10-26T03:32:25;38.00;;;21.20;;
32625;SDS011;19038;50.922;11.880;2022-10-26T03:37:25;24.83;;;15.37;;
32625;SDS011;19038;50.922;11.880;2022-10-26T03:42:25;19.20;;;14.30;;
32625;SDS011;19038;50.922;11.880;2022-10-26T03:47:25;18.20;;;12.87;;
32625;SDS011;19038;50.922;11.880;2022-10-26T03:52:25;14.40;;;10.90;;
32625;SDS011;19038;50.922;11.880;2022-10-26T03:57:25;14.50;;;12.30;;
32625;SDS011;19038;50.922;11.880;2022-10-26T04:02:25;11.83;;;9.83;;
32625;SDS011;19038;50.922;11.880;2022-10-26T04:07:29;9.30;;;8.13;;
32625;SDS011;19038;50.922;11.880;2022-10-26T04:12:25;9.10;;;6.67;;
32625;SDS011;19038;50.922;11.880;2022-10-26T04:17:25;7.47;;;5.70;;
32625;SDS011;19038;50.922;11.880;2022-10-26T04:22:25;8.10;;;7.07;;
32625;SDS011;19038;50.922;11.880;2022-10-26T04:27:25;11.60;;;8.50;;
32625;SDS011;19038;50.922;11.880;2022-10-26T04:32:25;9.70;;;7.67;;
32625;SDS011;19038;50.922;11.880;2022-10-26T04:37:25;8.30;;;7.50;;
32625;SDS011;19038;50.922;11.880;2022-10-26T04:42:25;7.70;;;6.63;;
32625;SDS011;19038;50.922;11.880;2022-10-26T04:47:25;7.30;;;6.30;;
32625;SDS011;19038;50.922;11.880;2022-10-26T04:52:25;12.20;;;7.40;;
32625;SDS011;19038;50.922;11.880;2022-10-26T04:57:25;8.93;;;8.00;;
32625;SDS011;19038;50.922;11.880;2022-10-26T05:02:26;16.10;;;13.37;;
32625;SDS011;19038;50.922;11.880;2022-10-26T05:07:25;15.53;;;14.03;;
32625;SDS011;19038;50.922;11.880;2022-10-26T05:12:25;13.27;;;11.90;;
32625;SDS011;19038;50.922;11.880;2022-10-26T05:17:25;11.60;;;10.50;;
32625;SDS011;19038;50.922;11.880;2022-10-26T05:22:25;6.77;;;6.17;;
32625;SDS011;19038;50.922;11.880;2022-10-26T05:27:25;6.40;;;5.23;;
32625;SDS011;19038;50.922;11.880;2022-10-26T05:32:25;5.57;;;4.67;;
32625;SDS011;19038;50.922;11.880;2022-10-26T05:37:28;6.67;;;5.40;;
32625;SDS011;19038;50.922;11.880;2022-10-26T05:42:25;6.67;;;6.07;;
32625;SDS011;19038;50.922;11.880;2022-10-26T05:47:25;9.20;;;7.13;;
32625;SDS011;19038;50.922;11.880;2022-10-26T05:52:25;10.30;;;7.80;;
32625;SDS011;19038;50.922;11.880;2022-10-26T05:57:25;12.53;;;9.23;;
32625;SDS011;19038;50.922;11.880;2022-10-26T06:07:25;10.17;;;9.17;;
32625;SDS011;19038;50.922;11.880;2022-10-26T06:12:25;11.80;;;10.30;;
32625;SDS011;19038;50.922;11.880;2022-10-26T06:27:30;15.90;;;11.83;;
32625;SDS011;19038;50.922;11.880;2022-10-26T06:32:25;15.43;;;11.30;;
32625;SDS011;19038;50.922;11.880;2022-10-26T06:37:25;17.90;;;12.87;;
32625;SDS011;19038;50.922;11.880;2022-10-26T06:42:25;15.47;;;13.97;;
32625;SDS011;19038;50.922;11.880;2022-10-26T06:47:30;16.67;;;14.97;;
32625;SDS011;19038;50.922;11.880;2022-10-26T06:52:28;17.13;;;15.17;;
32625;SDS011;19038;50.922;11.880;2022-10-26T06:57:28;16.33;;;14.17;;
32625;SDS011;19038;50.922;11.880;2022-10-26T07:02:25;21.67;;;15.63;;
32625;SDS011;19038;50.922;11.880;2022-10-26T07:07:26;16.03;;;14.40;;
32625;SDS011;19038;50.922;11.880;2022-10-26T07:12:25;22.77;;;17.53;;
32625;SDS011;19038;50.922;11.880;2022-10-26T07:17:25;23.90;;;20.17;;
32625;SDS011;19038;50.922;11.880;2022-10-26T07:22:25;27.73;;;21.80;;
32625;SDS011;19038;50.922;11.880;2022-10-26T07:27:25;25.63;;;20.00;;
32625;SDS011;19038;50.922;11.880;2022-10-26T07:32:25;19.40;;;16.87;;
32625;SDS011;19038;50.922;11.880;2022-10-26T07:37:25;19.17;;;14.97;;
32625;SDS011;19038;50.922;11.880;2022-10-26T07:42:25;22.40;;;10.73;;
32625;SDS011;19038;50.922;11.880;2022-10-26T07:47:25;11.03;;;7.90;;
32625;SDS011;19038;50.922;11.880;2022-10-26T07:52:25;10.47;;;9.50;;
32625;SDS011;19038;50.922;11.880;2022-10-26T07:57:25;11.50;;;7.10;;
32625;SDS011;19038;50.922;11.880;2022-10-26T08:02:25;6.77;;;5.50;;
32625;SDS011;19038;50.922;11.880;2022-10-26T08:07:26;3.90;;;3.47;;
32625;SDS011;19038;50.922;11.880;2022-10-26T08:12:25;6.60;;;5.00;;
32625;SDS011;19038;50.922;11.880;2022-10-26T08:17:27;6.63;;;3.77;;
32625;SDS011;19038;50.922;11.880;2022-10-26T08:22:27;4.00;;;3.60;;
32625;SDS011;19038;50.922;11.880;2022-10-26T08:27:25;4.40;;;4.00;;
32625;SDS011;19038;50.922;11.880;2022-10-26T08:32:25;5.53;;;4.77;;
32625;SDS011;19038;50.922;11.880;2022-10-26T08:37:26;5.30;;;4.60;;
32625;SDS011;19038;50.922;11.880;2022-10-26T08:42:28;4.60;;;4.20;;
32625;SDS011;19038;50.922;11.880;2022-10-26T08:47:27;4.77;;;4.03;;
32625;SDS011;19038;50.922;11.880;2022-10-26T08:52:28;3.97;;;3.53;;
32625;SDS011;19038;50.922;11.880;2022-10-26T08:57:26;4.43;;;4.00;;
32625;SDS011;19038;50.922;11.880;2022-10-26T09:02:25;4.30;;;3.73;;
32625;SDS011;19038;50.922;11.880;2022-10-26T09:12:32;4.90;;;4.40;;
32625;SDS011;19038;50.922;11.880;2022-10-26T09:22:29;4.07;;;3.00;;
32625;SDS011;19038;50.922;11.880;2022-10-26T09:27:27;3.63;;;3.07;;
32625;SDS011;19038;50.922;11.880;2022-10-26T09:32:28;4.00;;;3.30;;
32625;SDS011;19038;50.922;11.880;2022-10-26T09:37:27;7.13;;;5.87;;
32625;SDS011;19038;50.922;11.880;2022-10-26T09:42:30;7.00;;;5.50;;
32625;SDS011;19038;50.922;11.880;2022-10-26T09:47:28;5.57;;;4.43;;
32625;SDS011;19038;50.922;11.880;2022-10-26T09:52:26;4.40;;;4.00;;
32625;SDS011;19038;50.922;11.880;2022-10-26T09:57:25;4.00;;;3.13;;
32625;SDS011;19038;50.922;11.880;2022-10-26T10:07:25;3.33;;;2.90;;
32625;SDS011;19038;50.922;11.880;2022-10-26T10:12:25;3.17;;;2.87;;
32625;SDS011;19038;50.922;11.880;2022-10-26T10:17:25;2.40;;;2.20;;
32625;SDS011;19038;50.922;11.880;2022-10-26T10:22:25;4.37;;;2.70;;
32625;SDS011;19038;50.922;11.880;2022-10-26T10:27:26;2.93;;;2.70;;
32625;SDS011;19038;50.922;11.880;2022-10-26T10:32:27;3.67;;;2.77;;
32625;SDS011;19038;50.922;11.880;2022-10-26T10:42:26;4.63;;;2.77;;
32625;SDS011;19038;50.922;11.880;2022-10-26T10:47:26;4.70;;;3.13;;
32625;SDS011;19038;50.922;11.880;2022-10-26T10:52:28;4.00;;;3.60;;
32625;SDS011;19038;50.922;11.880;2022-10-26T11:07:26;8.97;;;6.90;;
32625;SDS011;19038;50.922;11.880;2022-10-26T11:12:28;5.60;;;3.70;;
32625;SDS011;19038;50.922;11.880;2022-10-26T11:17:29;5.90;;;4.37;;
32625;SDS011;19038;50.922;11.880;2022-10-26T11:32:27;3.40;;;3.10;;
32625;SDS011;19038;50.922;11.880;2022-10-26T11:37:31;4.83;;;3.20;;
32625;SDS011;19038;50.922;11.880;2022-10-26T11:47:28;5.30;;;3.20;;
32625;SDS011;19038;50.922;11.880;2022-10-26T11:52:27;4.20;;;3.20;;
32625;SDS011;19038;50.922;11.880;2022-10-26T11:57:26;4.77;;;4.37;;
32625;SDS011;19038;50.922;11.880;2022-10-26T12:02:26;5.80;;;4.80;;
32625;SDS011;19038;50.922;11.880;2022-10-26T12:07:28;4.67;;;3.90;;
32625;SDS011;19038;50.922;11.880;2022-10-26T12:17:29;3.87;;;3.53;;
32625;SDS011;19038;50.922;11.880;2022-10-26T12:22:31;4.27;;;3.80;;
32625;SDS011;19038;50.922;11.880;2022-10-26T12:27:30;5.47;;;4.10;;
32625;SDS011;19038;50.922;11.880;2022-10-26T12:32:47;7.07;;;5.10;;
32625;SDS011;19038;50.922;11.880;2022-10-26T12:37:29;6.80;;;5.43;;
32625;SDS011;19038;50.922;11.880;2022-10-26T12:42:27;8.63;;;6.33;;
32625;SDS011;19038;50.922;11.880;2022-10-26T12:57:27;3.20;;;2.90;;
32625;SDS011;19038;50.922;11.880;2022-10-26T13:02:32;3.57;;;3.13;;
32625;SDS011;19038;50.922;11.880;2022-10-26T13:07:26;3.00;;;2.70;;
32625;SDS011;19038;50.922;11.880;2022-10-26T13:12:26;3.50;;;3.17;;
32625;SDS011;19038;50.922;11.880;2022-10-26T13:17:27;3.50;;;2.87;;
32625;SDS011;19038;50.922;11.880;2022-10-26T13:22:26;3.33;;;3.10;;
32625;SDS011;19038;50.922;11.880;2022-10-26T13:27:39;3.70;;;3.10;;
32625;SDS011;19038;50.922;11.880;2022-10-26T13:32:26;4.37;;;3.97;;
32625;SDS011;19038;50.922;11.880;2022-10-26T13:37:26;3.53;;;3.23;;
32625;SDS011;19038;50.922;11.880;2022-10-26T13:42:26;4.27;;;3.33;;
32625;SDS011;19038;50.922;11.880;2022-10-26T13:47:28;4.93;;;3.30;;
32625;SDS011;19038;50.922;11.880;2022-10-26T13:52:27;3.40;;;3.10;;
32625;SDS011;19038;50.922;11.880;2022-10-26T13:57:34;4.03;;;3.67;;
32625;SDS011;19038;50.922;11.880;2022-10-26T14:02:26;4.27;;;3.23;;
32625;SDS011;19038;50.922;11.880;2022-10-26T14:12:26;4.00;;;3.50;;
32625;SDS011;19038;50.922;11.880;2022-10-26T14:17:26;7.20;;;4.60;;
32625;SDS011;19038;50.922;11.880;2022-10-26T14:22:26;6.07;;;3.90;;
32625;SDS011;19038;50.922;11.880;2022-10-26T14:27:29;9.10;;;5.43;;
32625;SDS011;19038;50.922;11.880;2022-10-26T14:32:27;4.63;;;3.23;;
32625;SDS011;19038;50.922;11.880;2022-10-26T14:42:27;4.20;;;3.80;;
32625;SDS011;19038;50.922;11.880;2022-10-26T14:47:27;3.93;;;3.63;;
32625;SDS011;19038;50.922;11.880;2022-10-26T14:52:28;12.50;;;11.20;;
32625;SDS011;19038;50.922;11.880;2022-10-26T15:02:26;12.83;;;10.67;;
32625;SDS011;19038;50.922;11.880;2022-10-26T15:07:41;25.40;;;23.00;;
32625;SDS011;19038;50.922;11.880;2022-10-26T15:12:28;28.60;;;26.20;;
32625;SDS011;19038;50.922;11.880;2022-10-26T15:17:29;19.77;;;17.77;;
32625;SDS011;19038;50.922;11.880;2022-10-26T15:22:26;17.63;;;15.97;;
32625;SDS011;19038;50.922;11.880;2022-10-26T15:27:26;18.10;;;16.30;;
32625;SDS011;19038;50.922;11.880;2022-10-26T15:32:27;12.63;;;11.20;;
32625;SDS011;19038;50.922;11.880;2022-10-26T15:37:26;17.60;;;15.90;;
32625;SDS011;19038;50.922;11.880;2022-10-26T15:42:26;13.90;;;12.50;;
32625;SDS011;19038;50.922;11.880;2022-10-26T15:47:28;19.63;;;15.70;;
32625;SDS011;19038;50.922;11.880;2022-10-26T15:52:26;16.47;;;14.70;;
32625;SDS011;19038;50.922;11.880;2022-10-26T15:57:26;13.53;;;12.13;;
32625;SDS011;19038;50.922;11.880;2022-10-26T16:02:26;11.97;;;10.77;;
32625;SDS011;19038;50.922;11.880;2022-10-26T16:07:26;5.60;;;5.00;;
32625;SDS011;19038;50.922;11.880;2022-10-26T16:12:26;8.00;;;7.30;;
32625;SDS011;19038;50.922;11.880;2022-10-26T16:17:26;7.27;;;6.57;;
32625;SDS011;19038;50.922;11.880;2022-10-26T16:22:26;8.20;;;6.90;;
32625;SDS011;19038;50.922;11.880;2022-10-26T16:27:26;7.53;;;6.20;;
32625;SDS011;19038;50.922;11.880;2022-10-26T16:32:26;6.73;;;6.00;;
32625;SDS011;19038;50.922;11.880;2022-10-26T16:37:27;6.90;;;6.30;;
32625;SDS011;19038;50.922;11.880;2022-10-26T16:42:26;7.87;;;7.00;;
32625;SDS011;19038;50.922;11.880;2022-10-26T16:47:26;9.33;;;8.37;;
32625;SDS011;19038;50.922;11.880;2022-10-26T16:52:26;9.27;;;7.90;;
32625;SDS011;19038;50.922;11.880;2022-10-26T16:57:26;12.80;;;11.50;;
32625;SDS011;19038;50.922;11.880;2022-10-26T17:02:26;14.40;;;12.87;;
32625;SDS011;19038;50.922;11.880;2022-10-26T17:07:26;19.77;;;14.20;;
32625;SDS011;19038;50.922;11.880;2022-10-26T17:12:26;12.10;;;10.93;;
32625;SDS011;19038;50.922;11.880;2022-10-26T17:17:26;13.37;;;12.07;;
32625;SDS011;19038;50.922;11.880;2022-10-26T17:22:26;14.27;;;12.53;;
32625;SDS011;19038;50.922;11.880;2022-10-26T17:27:26;21.17;;;16.70;;
32625;SDS011;19038;50.922;11.880;2022-10-26T17:32:26;21.30;;;18.77;;
32625;SDS011;19038;50.922;11.880;2022-10-26T17:37:26;24.03;;;18.47;;
32625;SDS011;19038;50.922;11.880;2022-10-26T17:42:26;24.83;;;21.10;;
32625;SDS011;19038;50.922;11.880;2022-10-26T17:47:26;22.80;;;19.77;;
32625;SDS011;19038;50.922;11.880;2022-10-26T17:52:26;25.30;;;22.07;;
32625;SDS011;19038;50.922;11.880;2022-10-26T17:57:26;22.47;;;20.17;;
32625;SDS011;19038;50.922;11.880;2022-10-26T18:02:26;23.20;;;20.00;;
32625;SDS011;19038;50.922;11.880;2022-10-26T18:07:27;22.37;;;18.47;;
32625;SDS011;19038;50.922;11.880;2022-10-26T18:12:26;21.60;;;19.23;;
32625;SDS011;19038;50.922;11.880;2022-10-26T18:17:26;30.73;;;23.93;;
32625;SDS011;19038;50.922;11.880;2022-10-26T18:22:26;34.20;;;25.93;;
32625;SDS011;19038;50.922;11.880;2022-10-26T18:27:26;41.27;;;31.33;;
32625;SDS011;19038;50.922;11.880;2022-10-26T18:32:27;36.27;;;28.57;;
32625;SDS011;19038;50.922;11.880;2022-10-26T18:37:26;31.70;;;28.00;;
32625;SDS011;19038;50.922;11.880;2022-10-26T18:42:26;27.07;;;22.67;;
32625;SDS011;19038;50.922;11.880;2022-10-26T18:47:30;25.20;;;21.70;;
32625;SDS011;19038;50.922;11.880;2022-10-26T18:52:26;33.97;;;26.30;;
32625;SDS011;19038;50.922;11.880;2022-10-26T18:57:26;36.60;;;28.60;;
32625;SDS011;19038;50.922;11.880;2022-10-26T19:02:26;37.07;;;31.37;;
32625;SDS011;19038;50.922;11.880;2022-10-26T19:07:26;34.00;;;28.60;;
32625;SDS011;19038;50.922;11.880;2022-10-26T19:12:26;26.07;;;22.90;;
32625;SDS011;19038;50.922;11.880;2022-10-26T19:17:26;24.17;;;21.67;;
32625;SDS011;19038;50.922;11.880;2022-10-26T19:22:26;19.67;;;17.57;;
32625;SDS011;19038;50.922;11.880;2022-10-26T19:27:26;26.80;;;24.00;;
32625;SDS011;19038;50.922;11.880;2022-10-26T19:32:27;24.77;;;22.17;;
32625;SDS011;19038;50.922;11.880;2022-10-26T19:37:27;29.27;;;24.33;;
32625;SDS011;19038;50.922;11.880;2022-10-26T19:42:26;27.80;;;24.90;;
32625;SDS011;19038;50.922;11.880;2022-10-26T19:47:27;27.33;;;24.40;;
32625;SDS011;19038;50.922;11.880;2022-10-26T19:52:27;27.40;;;23.50;;
32625;SDS011;19038;50.922;11.880;2022-10-26T19:57:27;25.37;;;22.77;;
32625;SDS011;19038;50.922;11.880;2022-10-26T20:07:28;22.33;;;20.13;;
32625;SDS011;19038;50.922;11.880;2022-10-26T20:12:28;21.93;;;19.63;;
32625;SDS011;19038;50.922;11.880;2022-10-26T20:17:28;21.80;;;19.60;;
32625;SDS011;19038;50.922;11.880;2022-10-26T20:22:31;22.30;;;20.20;;
32625;SDS011;19038;50.922;11.880;2022-10-26T20:27:28;23.50;;;21.30;;
32625;SDS011;19038;50.922;11.880;2022-10-26T20:32:28;26.67;;;23.90;;
32625;SDS011;19038;50.922;11.880;2022-10-26T20:37:29;33.40;;;27.03;;
32625;SDS011;19038;50.922;11.880;2022-10-26T20:42:28;32.23;;;28.83;;
32625;SDS011;19038;50.922;11.880;2022-10-26T20:47:29;30.00;;;26.80;;
32625;SDS011;19038;50.922;11.880;2022-10-26T20:52:33;35.23;;;29.97;;
32625;SDS011;19038;50.922;11.880;2022-10-26T20:57:29;35.93;;;31.53;;
32625;SDS011;19038;50.922;11.880;2022-10-26T21:02:29;39.47;;;33.70;;
32625;SDS011;19038;50.922;11.880;2022-10-26T21:07:28;40.57;;;36.17;;
32625;SDS011;19038;50.922;11.880;2022-10-26T21:12:28;42.07;;;36.37;;
32625;SDS011;19038;50.922;11.880;2022-10-26T21:17:28;47.53;;;39.37;;
32625;SDS011;19038;50.922;11.880;2022-10-26T21:22:28;51.70;;;39.60;;
32625;SDS011;19038;50.922;11.880;2022-10-26T21:27:28;50.23;;;40.10;;
32625;SDS011;19038;50.922;11.880;2022-10-26T21:32:28;45.87;;;37.50;;
32625;SDS011;19038;50.922;11.880;2022-10-26T21:37:28;39.97;;;35.13;;
32625;SDS011;19038;50.922;11.880;2022-10-26T21:42:29;39.10;;;34.70;;
32625;SDS011;19038;50.922;11.880;2022-10-26T21:47:28;39.90;;;34.90;;
32625;SDS011;19038;50.922;11.880;2022-10-26T21:52:28;40.50;;;35.53;;
32625;SDS011;19038;50.922;11.880;2022-10-26T21:57:28;42.33;;;35.70;;
32625;SDS011;19038;50.922;11.880;2022-10-26T22:02:28;49.10;;;36.60;;
32625;SDS011;19038;50.922;11.880;2022-10-26T22:07:28;40.97;;;35.10;;
32625;SDS011;19038;50.922;11.880;2022-10-26T22:12:28;53.97;;;42.80;;
32625;SDS011;19038;50.922;11.880;2022-10-26T22:17:28;50.57;;;37.83;;
32625;SDS011;19038;50.922;11.880;2022-10-26T22:22:28;46.67;;;36.17;;
32625;SDS011;19038;50.922;11.880;2022-10-26T22:27:28;44.60;;;34.27;;
32625;SDS011;19038;50.922;11.880;2022-10-26T22:32:28;37.37;;;32.17;;
32625;SDS011;19038;50.922;11.880;2022-10-26T22:37:28;35.70;;;30.47;;
32625;SDS011;19038;50.922;11.880;2022-10-26T22:42:28;31.30;;;28.00;;
32625;SDS011;19038;50.922;11.880;2022-10-26T22:47:29;28.60;;;25.50;;
32625;SDS011;19038;50.922;11.880;2022-10-26T22:52:28;26.37;;;23.83;;
32625;SDS011;19038;50.922;11.880;2022-10-26T22:57:28;20.27;;;18.27;;
32625;SDS011;19038;50.922;11.880;2022-10-26T23:02:28;16.90;;;15.20;;
32625;SDS011;19038;50.922;11.880;2022-10-26T23:07:28;15.80;;;14.20;;
32625;SDS011;19038;50.922;11.880;2022-10-26T23:12:28;16.80;;;15.10;;
32625;SDS011;19038;50.922;11.880;2022-10-26T23:17:28;13.10;;;11.83;;
32625;SDS011;19038;50.922;11.880;2022-10-26T23:22:28;12.80;;;11.37;;
32625;SDS011;19038;50.922;11.880;2022-10-26T23:27:29;12.63;;;11.10;;
32625;SDS011;19038;50.922;11.880;2022-10-26T23:32:29;12.43;;;10.27;;
32625;SDS011;19038;50.922;11.880;2022-10-26T23:37:28;12.87;;;10.07;;
32625;SDS011;19038;50.922;11.880;2022-10-26T23:42:28;9.57;;;8.67;;
32625;SDS011;19038;50.922;11.880;2022-10-26T23:47:29;9.40;;;8.23;;
32625;SDS011;19038;50.922;11.880;2022-10-26T23:52:29;8.43;;;7.63;;
32625;SDS011;19038;50.922;11.880;2022-10-26T23:57:29;8.27;;;7.47;;
